Time;durP1;ratioP1;P1;durP2;ratioP2;P2;SDS_P1;SDS_P2;PMS_P1;PMS_P2;Temp;Humidity;BMP_temperature;BMP_pressure;BME280_temperature;BME280_humidity;BME280_pressure;Samples;Min_cycle;Max_cycle;Signal;HPM_P1;HPM_P2
2021/10/19 00:01:17;;;;;;;;;;;14.20;95.10;;;;;;5025070;28;19914;-74
2021/10/19 00:03:42;;;;;;;;;;;14.20;95.10;;;;;;5021558;28;20281;-74
2021/10/19 00:06:09;;;;;;;;;;;14.10;95.10;;;;;;5015622;28;19913;-74
2021/10/19 00:08:35;;;;;;;;;;;14.10;95.10;;;;;;5025966;28;20285;-74
2021/10/19 00:11:00;;;;;;;;;;;14.20;95.10;;;;;;5018724;28;20357;-74
2021/10/19 00:13:26;;;;;;;;;;;14.10;95.10;;;;;;5011235;28;20379;-75
2021/10/19 00:15:51;;;;;;;;;;;14.10;95.10;;;;;;5026148;28;19921;-75
2021/10/19 00:18:17;;;;;;;;;;;14.10;95.10;;;;;;5016347;28;19913;-74
2021/10/19 00:20:42;;;;;;;;;;;14.20;95.10;;;;;;5019630;28;19960;-74
2021/10/19 00:23:08;;;;;;;;;;;14.20;95.10;;;;;;5022669;28;19917;-74
2021/10/19 00:25:33;;;;;;;;;;;14.20;95.10;;;;;;5026021;28;20373;-75
2021/10/19 00:27:59;;;;;;;;;;;14.20;95.10;;;;;;5019230;28;19917;-75
2021/10/19 00:30:24;;;;;;;;;;;14.20;95.10;;;;;;5022332;28;20262;-75
2021/10/19 00:32:50;;;;;;;;;;;14.20;95.10;;;;;;5021678;28;19921;-75
2021/10/19 00:35:16;;;;;;;;;;;14.20;95.10;;;;;;5019925;28;19960;-74
2021/10/19 00:37:41;;;;;;;;;;;14.20;95.10;;;;;;5007416;28;19913;-75
2021/10/19 00:40:07;;;;;;;;;;;14.20;95.10;;;;;;5022613;28;20011;-75
2021/10/19 00:42:34;;;;;;;;;;;14.20;95.10;;;;;;5024428;28;19943;-75
2021/10/19 00:44:59;;;;;;;;;;;14.10;95.20;;;;;;5025512;28;20395;-75
2021/10/19 00:47:24;;;;;;;;;;;14.10;95.20;;;;;;5023780;28;19944;-74
2021/10/19 00:49:50;;;;;;;;;;;14.10;95.30;;;;;;5022133;28;20401;-74
2021/10/19 00:52:17;;;;;;;;;;;14.10;95.30;;;;;;5007360;28;20000;-75
2021/10/19 00:54:43;;;;;;;;;;;14.10;95.30;;;;;;5027285;28;19921;-75
2021/10/19 00:57:09;;;;;;;;;;;14.10;95.30;;;;;;5020904;28;19964;-75
2021/10/19 00:59:36;;;;;;;;;;;14.10;95.30;;;;;;5023818;28;19917;-74
2021/10/19 01:02:03;;;;;;;;;;;14.10;95.30;;;;;;5026765;28;19914;-75
2021/10/19 01:04:28;;;;;;;;;;;14.10;95.20;;;;;;5022727;28;19968;-74
2021/10/19 01:06:54;;;;;;;;;;;14.10;95.20;;;;;;5024962;28;19944;-74
2021/10/19 01:09:19;;;;;;;;;;;14.10;95.20;;;;;;5025043;28;19919;-74
2021/10/19 01:11:45;;;;;;;;;;;14.10;95.20;;;;;;5019812;28;19913;-74
2021/10/19 01:14:10;;;;;;;;;;;14.10;95.20;;;;;;5024951;28;20346;-74
2021/10/19 01:16:35;;;;;;;;;;;14.20;95.30;;;;;;5022555;28;19979;-74
2021/10/19 01:19:01;;;;;;;;;;;14.10;95.20;;;;;;5023346;28;19913;-75
2021/10/19 01:21:26;;;;;;;;;;;14.10;95.20;;;;;;5019976;28;19913;-74
2021/10/19 01:23:52;;;;;;;;;;;14.10;95.30;;;;;;5005790;28;19913;-74
2021/10/19 01:26:17;;;;;;;;;;;14.10;95.20;;;;;;5019632;28;19920;-75
2021/10/19 01:28:43;;;;;;;;;;;14.10;95.30;;;;;;5021665;28;19913;-75
2021/10/19 01:31:12;;;;;;;;;;;14.10;95.20;;;;;;5020109;28;19925;-75
2021/10/19 01:33:38;;;;;;;;;;;14.10;95.20;;;;;;5021401;28;19920;-74
2021/10/19 01:36:04;;;;;;;;;;;14.10;95.20;;;;;;5021048;28;19968;-75
2021/10/19 01:38:30;;;;;;;;;;;14.10;95.20;;;;;;5021316;28;19920;-74
2021/10/19 01:40:56;;;;;;;;;;;14.10;95.20;;;;;;5021447;28;19913;-74
2021/10/19 01:43:23;;;;;;;;;;;14.10;95.20;;;;;;5020322;28;19913;-75
2021/10/19 01:45:49;;;;;;;;;;;14.10;95.20;;;;;;5018787;28;20401;-75
2021/10/19 01:48:15;;;;;;;;;;;14.10;95.10;;;;;;5024693;28;19913;-75
2021/10/19 01:50:40;;;;;;;;;;;14.10;95.20;;;;;;5015205;28;20413;-75
2021/10/19 01:53:07;;;;;;;;;;;14.10;95.10;;;;;;5011207;28;19913;-74
2021/10/19 01:55:32;;;;;;;;;;;14.20;95.20;;;;;;5025248;28;19984;-75
2021/10/19 01:57:58;;;;;;;;;;;14.20;95.10;;;;;;5020963;28;20390;-74
2021/10/19 02:00:23;;;;;;;;;;;14.20;95.10;;;;;;5021378;28;20293;-75
2021/10/19 02:02:48;;;;;;;;;;;14.20;95.20;;;;;;5006217;28;20277;-75
2021/10/19 02:05:14;;;;;;;;;;;14.20;95.10;;;;;;5024500;28;20003;-74
2021/10/19 02:07:39;;;;;;;;;;;14.20;95.10;;;;;;5024026;28;19913;-74
2021/10/19 02:10:05;;;;;;;;;;;14.20;95.10;;;;;;5023689;28;19956;-75
2021/10/19 02:12:31;;;;;;;;;;;14.20;95.10;;;;;;5024600;28;19913;-75
2021/10/19 02:14:56;;;;;;;;;;;14.30;95.10;;;;;;5021619;28;19928;-74
2021/10/19 02:17:22;;;;;;;;;;;14.30;95.10;;;;;;5020728;28;20370;-74
2021/10/19 02:19:47;;;;;;;;;;;14.30;95.10;;;;;;5016951;28;19936;-74
2021/10/19 02:22:13;;;;;;;;;;;14.30;95.10;;;;;;5017738;28;19921;-75
2021/10/19 02:24:38;;;;;;;;;;;14.30;95.20;;;;;;5017501;28;20326;-74
2021/10/19 02:27:04;;;;;;;;;;;14.30;95.20;;;;;;5015627;28;20344;-74
2021/10/19 02:29:29;;;;;;;;;;;14.30;95.20;;;;;;5024306;28;20325;-75
2021/10/19 02:31:55;;;;;;;;;;;14.30;95.20;;;;;;5021600;28;19921;-75
2021/10/19 02:34:22;;;;;;;;;;;14.30;95.20;;;;;;5020709;28;19920;-74
2021/10/19 02:36:48;;;;;;;;;;;14.30;95.10;;;;;;5018145;28;19916;-75
2021/10/19 02:39:13;;;;;;;;;;;14.40;95.20;;;;;;5024008;28;19914;-74
2021/10/19 02:41:39;;;;;;;;;;;14.40;95.20;;;;;;5012106;28;19941;-74
2021/10/19 02:44:05;;;;;;;;;;;14.40;95.20;;;;;;5013555;28;19914;-75
2021/10/19 02:46:31;;;;;;;;;;;14.40;95.20;;;;;;5023519;28;19913;-75
2021/10/19 02:48:57;;;;;;;;;;;14.40;95.10;;;;;;5022737;28;20397;-74
2021/10/19 02:51:23;;;;;;;;;;;14.50;95.20;;;;;;5019752;28;19963;-74
2021/10/19 02:53:48;;;;;;;;;;;14.50;95.20;;;;;;5007725;28;19960;-74
2021/10/19 02:56:14;;;;;;;;;;;14.50;95.20;;;;;;5019508;28;19921;-74
2021/10/19 02:58:39;;;;;;;;;;;14.50;95.20;;;;;;5024331;28;19914;-75
2021/10/19 03:01:04;;;;;;;;;;;14.50;95.20;;;;;;5024810;28;20333;-74
2021/10/19 03:03:30;;;;;;;;;;;14.50;95.20;;;;;;5027578;28;20385;-74
2021/10/19 03:05:55;;;;;;;;;;;14.50;95.20;;;;;;5019619;28;19910;-74
2021/10/19 03:08:22;;;;;;;;;;;14.60;95.30;;;;;;5023685;28;19985;-74
2021/10/19 03:10:48;;;;;;;;;;;14.60;95.30;;;;;;5024163;28;19913;-75
2021/10/19 03:13:13;;;;;;;;;;;14.60;95.30;;;;;;5025556;28;20388;-74
2021/10/19 03:15:39;;;;;;;;;;;14.60;95.30;;;;;;5021452;28;19933;-75
2021/10/19 03:18:04;;;;;;;;;;;14.60;95.20;;;;;;5024200;28;20000;-75
2021/10/19 03:20:30;;;;;;;;;;;14.70;95.30;;;;;;5026062;28;19963;-74
2021/10/19 03:22:56;;;;;;;;;;;14.70;95.20;;;;;;5019293;28;19914;-74
2021/10/19 03:25:21;;;;;;;;;;;14.70;95.20;;;;;;5022652;28;19914;-74
2021/10/19 03:27:47;;;;;;;;;;;14.70;95.20;;;;;;5021916;28;19909;-74
2021/10/19 03:30:13;;;;;;;;;;;14.70;95.20;;;;;;5018291;28;19925;-74
2021/10/19 03:32:38;;;;;;;;;;;14.70;95.30;;;;;;5022219;28;19967;-75
2021/10/19 03:35:04;;;;;;;;;;;14.70;95.30;;;;;;5023553;28;19921;-74
2021/10/19 03:37:30;;;;;;;;;;;14.70;95.30;;;;;;5025438;28;20293;-74
2021/10/19 03:39:55;;;;;;;;;;;14.70;95.40;;;;;;5020271;28;19913;-75
2021/10/19 03:42:21;;;;;;;;;;;14.70;95.50;;;;;;5021986;28;19917;-73
2021/10/19 03:44:46;;;;;;;;;;;14.70;95.50;;;;;;5021148;28;20358;-75
2021/10/19 03:47:11;;;;;;;;;;;14.70;95.60;;;;;;5023258;28;19913;-74
2021/10/19 03:49:37;;;;;;;;;;;14.70;95.60;;;;;;5026221;28;19913;-75
2021/10/19 03:52:02;;;;;;;;;;;14.60;95.50;;;;;;5026484;28;19957;-74
2021/10/19 03:54:28;;;;;;;;;;;14.70;95.60;;;;;;5024311;28;19913;-75
2021/10/19 03:56:53;;;;;;;;;;;14.70;95.60;;;;;;5023141;28;20361;-75
2021/10/19 03:59:19;;;;;;;;;;;14.70;95.60;;;;;;5025045;28;20345;-75
2021/10/19 04:01:44;;;;;;;;;;;14.70;95.60;;;;;;5026488;28;20255;-74
2021/10/19 04:04:10;;;;;;;;;;;14.70;95.60;;;;;;5025261;28;19921;-74
2021/10/19 04:06:35;;;;;;;;;;;14.70;95.60;;;;;;5009601;28;19967;-74
2021/10/19 04:09:00;;;;;;;;;;;14.70;95.60;;;;;;5022134;28;19913;-75
2021/10/19 04:11:26;;;;;;;;;;;14.70;95.60;;;;;;5022749;28;20000;-74
2021/10/19 04:13:51;;;;;;;;;;;14.70;95.50;;;;;;5025154;28;19987;-74
2021/10/19 04:16:17;;;;;;;;;;;14.80;95.50;;;;;;5022761;28;19927;-74
2021/10/19 04:18:42;;;;;;;;;;;14.70;95.50;;;;;;5024445;28;20508;-74
2021/10/19 04:21:08;;;;;;;;;;;14.80;95.50;;;;;;5023631;28;20394;-74
2021/10/19 04:23:33;;;;;;;;;;;14.80;95.50;;;;;;5022718;28;20008;-74
2021/10/19 04:25:59;;;;;;;;;;;14.80;95.50;;;;;;5024721;28;19921;-75
2021/10/19 04:28:24;;;;;;;;;;;14.80;95.50;;;;;;5025506;28;19913;-74
2021/10/19 04:30:51;;;;;;;;;;;14.80;95.50;;;;;;5015661;28;19914;-75
2021/10/19 04:33:16;;;;;;;;;;;14.80;95.50;;;;;;5020369;28;19922;-74
2021/10/19 04:35:42;;;;;;;;;;;14.90;95.50;;;;;;5025647;28;19921;-74
2021/10/19 04:38:07;;;;;;;;;;;14.80;95.40;;;;;;5023460;28;19920;-75
2021/10/19 04:40:33;;;;;;;;;;;14.80;95.50;;;;;;5026614;28;20536;-75
2021/10/19 04:43:00;;;;;;;;;;;14.90;95.50;;;;;;5023616;28;19913;-74
2021/10/19 04:45:26;;;;;;;;;;;14.90;95.50;;;;;;5022423;28;19967;-75
2021/10/19 04:47:51;;;;;;;;;;;14.90;95.50;;;;;;5022303;28;19913;-74
2021/10/19 04:50:17;;;;;;;;;;;14.90;95.50;;;;;;5022147;28;19920;-74
2021/10/19 04:52:42;;;;;;;;;;;14.90;95.50;;;;;;5016242;28;19913;-74
2021/10/19 04:55:08;;;;;;;;;;;14.90;95.50;;;;;;5022247;28;19922;-75
2021/10/19 04:57:33;;;;;;;;;;;14.90;95.50;;;;;;5021510;28;20501;-74
2021/10/19 04:59:59;;;;;;;;;;;14.90;95.50;;;;;;5018676;28;19924;-74
2021/10/19 05:02:24;;;;;;;;;;;14.90;95.50;;;;;;5022055;28;20020;-74
2021/10/19 05:04:50;;;;;;;;;;;14.90;95.50;;;;;;5022041;28;20000;-74
2021/10/19 05:07:15;;;;;;;;;;;14.80;95.60;;;;;;5026247;28;19967;-74
2021/10/19 05:09:41;;;;;;;;;;;14.90;95.60;;;;;;5022924;28;19913;-74
2021/10/19 05:12:06;;;;;;;;;;;14.80;95.60;;;;;;5021539;28;20564;-74
2021/10/19 05:14:32;;;;;;;;;;;14.80;95.60;;;;;;5028975;28;19913;-73
2021/10/19 05:16:57;;;;;;;;;;;14.80;95.70;;;;;;5022114;28;19917;-73
2021/10/19 05:19:23;;;;;;;;;;;14.80;95.70;;;;;;5021692;28;19914;-73
2021/10/19 05:21:48;;;;;;;;;;;14.70;95.70;;;;;;5014125;28;19999;-74
2021/10/19 05:24:13;;;;;;;;;;;14.80;95.80;;;;;;5021780;28;19952;-75
2021/10/19 05:26:39;;;;;;;;;;;14.70;95.70;;;;;;5021181;28;19925;-75
2021/10/19 05:29:04;;;;;;;;;;;14.70;95.80;;;;;;5015889;28;20001;-74
2021/10/19 05:31:30;;;;;;;;;;;14.70;95.80;;;;;;5019243;28;20367;-74
2021/10/19 05:33:55;;;;;;;;;;;14.70;95.80;;;;;;5021270;28;19924;-75
2021/10/19 05:36:21;;;;;;;;;;;14.70;95.80;;;;;;5021589;28;19925;-75
2021/10/19 05:38:48;;;;;;;;;;;14.70;95.80;;;;;;5021602;28;19991;-75
2021/10/19 05:41:16;;;;;;;;;;;14.70;95.90;;;;;;5020641;28;19924;-75
2021/10/19 05:43:42;;;;;;;;;;;14.70;95.90;;;;;;5019151;28;19913;-74
2021/10/19 05:46:07;;;;;;;;;;;14.70;95.90;;;;;;5023575;28;19913;-75
2021/10/19 05:48:33;;;;;;;;;;;14.70;95.90;;;;;;5021446;28;20453;-75
2021/10/19 05:50:58;;;;;;;;;;;14.70;95.80;;;;;;5021515;28;19918;-75
2021/10/19 05:53:24;;;;;;;;;;;14.60;95.80;;;;;;5008224;28;19921;-75
2021/10/19 05:55:49;;;;;;;;;;;14.70;95.80;;;;;;5019056;28;20016;-76
2021/10/19 05:58:15;;;;;;;;;;;14.70;95.80;;;;;;5013450;28;19920;-75
2021/10/19 06:00:40;;;;;;;;;;;14.70;95.80;;;;;;5024117;28;19912;-75
2021/10/19 06:03:05;;;;;;;;;;;14.70;95.80;;;;;;5023033;28;19939;-75
2021/10/19 06:05:34;;;;;;;;;;;14.70;95.80;;;;;;5015882;28;19976;-75
2021/10/19 06:08:00;;;;;;;;;;;14.70;95.80;;;;;;5024290;28;20270;-75
2021/10/19 06:10:25;;;;;;;;;;;14.70;95.80;;;;;;5023936;28;19936;-75
2021/10/19 06:12:51;;;;;;;;;;;14.70;95.80;;;;;;5020943;28;19914;-75
2021/10/19 06:15:17;;;;;;;;;;;14.70;95.80;;;;;;5011407;28;19922;-73
2021/10/19 06:17:43;;;;;;;;;;;14.70;95.80;;;;;;5019736;28;19936;-74
2021/10/19 06:20:11;;;;;;;;;;;14.70;95.80;;;;;;5022865;28;19913;-74
2021/10/19 06:22:37;;;;;;;;;;;14.70;95.80;;;;;;5024883;28;20392;-74
2021/10/19 06:25:02;;;;;;;;;;;14.80;95.80;;;;;;5020565;28;19918;-74
2021/10/19 06:27:28;;;;;;;;;;;14.70;95.80;;;;;;5019875;28;20321;-74
2021/10/19 06:29:53;;;;;;;;;;;14.70;95.80;;;;;;5013461;28;19914;-74
2021/10/19 06:32:19;;;;;;;;;;;14.80;95.80;;;;;;5025568;28;19932;-74
2021/10/19 06:34:44;;;;;;;;;;;14.70;95.80;;;;;;5043921;23;19926;-73
2021/10/19 06:37:10;;;;;;;;;;;14.80;95.90;;;;;;5026560;28;20008;-71
2021/10/19 06:39:36;;;;;;;;;;;14.80;95.90;;;;;;5029386;28;19936;-72
2021/10/19 06:42:01;;;;;;;;;;;14.80;95.90;;;;;;5007089;28;20366;-72
2021/10/19 06:45:37;;;;;;;;;;;14.80;95.60;;;;;;5052062;27;1896902;-71
2021/10/19 06:48:03;;;;;;;;;;;14.80;95.90;;;;;;5109583;28;19954;-72
2021/10/19 06:50:28;;;;;;;;;;;14.80;95.90;;;;;;5109669;28;19912;-72
2021/10/19 06:52:53;;;;;;;;;;;14.80;95.90;;;;;;5109711;28;19912;-72
2021/10/19 06:55:22;;;;;;;;;;;14.80;95.90;;;;;;5109890;28;19912;-71
2021/10/19 06:57:48;;;;;;;;;;;14.80;95.90;;;;;;5110261;28;19918;-71
2021/10/19 07:00:15;;;;;;;;;;;14.80;95.90;;;;;;5110292;28;20405;-72
2021/10/19 07:02:40;;;;;;;;;;;14.80;95.90;;;;;;5110029;28;20376;-72
2021/10/19 07:05:06;;;;;;;;;;;14.90;95.90;;;;;;5109195;28;19927;-72
2021/10/19 07:07:32;;;;;;;;;;;14.80;95.90;;;;;;5109441;28;19962;-72
2021/10/19 07:09:58;;;;;;;;;;;14.80;95.90;;;;;;5106038;28;19920;-73
2021/10/19 07:12:24;;;;;;;;;;;14.90;95.90;;;;;;5106083;28;19912;-72
2021/10/19 07:14:50;;;;;;;;;;;14.90;96.00;;;;;;5109878;28;20281;-73
2021/10/19 07:17:15;;;;;;;;;;;14.90;95.90;;;;;;5110007;28;19912;-71
2021/10/19 07:19:40;;;;;;;;;;;14.90;96.00;;;;;;5109332;28;20275;-72
2021/10/19 07:22:06;;;;;;;;;;;14.90;95.90;;;;;;5109579;28;19951;-73
2021/10/19 07:24:32;;;;;;;;;;;14.90;96.00;;;;;;5090693;28;20014;-73
2021/10/19 07:26:57;;;;;;;;;;;15.00;96.00;;;;;;5109327;28;20007;-72
2021/10/19 07:29:23;;;;;;;;;;;15.00;96.00;;;;;;5109836;28;20425;-71
2021/10/19 07:31:48;;;;;;;;;;;15.00;96.00;;;;;;5109274;28;20333;-72
2021/10/19 07:34:14;;;;;;;;;;;15.00;96.20;;;;;;5109416;28;20002;-72
2021/10/19 07:36:39;;;;;;;;;;;15.00;96.00;;;;;;5109482;28;19934;-72
2021/10/19 07:39:06;;;;;;;;;;;15.10;96.00;;;;;;5108459;28;19920;-73
2021/10/19 07:41:31;;;;;;;;;;;15.10;96.10;;;;;;5109519;28;19916;-73
2021/10/19 07:43:56;;;;;;;;;;;15.10;96.10;;;;;;5109159;28;20383;-73
2021/10/19 07:46:22;;;;;;;;;;;15.10;96.10;;;;;;5108761;28;19927;-72
2021/10/19 07:48:47;;;;;;;;;;;15.10;96.10;;;;;;5109684;28;20289;-74
2021/10/19 07:51:13;;;;;;;;;;;15.20;96.10;;;;;;5107634;28;20329;-73
2021/10/19 07:53:38;;;;;;;;;;;15.20;96.10;;;;;;5108907;28;19916;-72
2021/10/19 07:56:04;;;;;;;;;;;15.20;96.10;;;;;;5100440;28;20265;-72
2021/10/19 07:58:29;;;;;;;;;;;15.30;96.10;;;;;;5095700;28;19920;-72
2021/10/19 08:00:55;;;;;;;;;;;15.20;96.10;;;;;;5095324;28;19912;-72
2021/10/19 08:03:20;;;;;;;;;;;15.30;96.10;;;;;;5095076;28;20262;-72
2021/10/19 08:05:46;;;;;;;;;;;15.30;96.10;;;;;;5095123;28;20002;-73
2021/10/19 08:08:16;;;;;;;;;;;15.30;96.10;;;;;;5095142;28;19916;-71
2021/10/19 08:10:43;;;;;;;;;;;15.30;96.10;;;;;;5069509;28;19916;-72
2021/10/19 08:13:09;;;;;;;;;;;15.40;96.10;;;;;;5094889;28;20007;-72
2021/10/19 08:15:35;;;;;;;;;;;15.40;96.10;;;;;;5076389;28;19959;-73
2021/10/19 08:18:01;;;;;;;;;;;15.40;96.10;;;;;;5095246;28;19982;-72
2021/10/19 08:20:26;;;;;;;;;;;15.50;96.10;;;;;;5076009;28;20435;-73
2021/10/19 08:22:52;;;;;;;;;;;15.40;96.10;;;;;;5095018;28;20357;-73
2021/10/19 08:25:17;;;;;;;;;;;15.50;96.10;;;;;;5095001;28;19924;-73
2021/10/19 08:27:44;;;;;;;;;;;15.50;96.10;;;;;;5094255;28;19912;-71
2021/10/19 08:30:10;;;;;;;;;;;15.50;96.10;;;;;;5095192;28;20349;-73
2021/10/19 08:32:36;;;;;;;;;;;15.50;96.10;;;;;;5094596;28;19912;-72
2021/10/19 08:35:02;;;;;;;;;;;15.60;96.10;;;;;;5094311;28;20010;-73
2021/10/19 08:37:27;;;;;;;;;;;15.60;96.10;;;;;;5094978;28;20280;-74
2021/10/19 08:39:53;;;;;;;;;;;15.60;96.10;;;;;;5094475;28;20446;-72
2021/10/19 08:42:18;;;;;;;;;;;15.70;96.10;;;;;;5094785;28;20330;-73
2021/10/19 08:44:45;;;;;;;;;;;15.70;96.10;;;;;;5092703;28;19924;-72
2021/10/19 08:47:10;;;;;;;;;;;15.70;96.10;;;;;;5088129;28;20276;-73
2021/10/19 08:49:36;;;;;;;;;;;15.70;96.10;;;;;;5093261;28;19918;-73
2021/10/19 08:52:01;;;;;;;;;;;15.70;96.10;;;;;;5094423;28;20432;-75
2021/10/19 08:54:27;;;;;;;;;;;15.70;96.10;;;;;;5076634;28;19916;-71
2021/10/19 08:56:52;;;;;;;;;;;15.80;96.10;;;;;;5075776;28;20372;-72
2021/10/19 08:59:22;;;;;;;;;;;15.80;96.10;;;;;;5094151;28;19912;-72
2021/10/19 09:01:48;;;;;;;;;;;15.80;96.10;;;;;;5093163;28;19912;-73
2021/10/19 09:04:13;;;;;;;;;;;15.90;96.20;;;;;;5093833;28;19927;-72
2021/10/19 09:06:39;;;;;;;;;;;15.90;96.20;;;;;;5093771;28;19912;-71
2021/10/19 09:09:09;;;;;;;;;;;15.90;96.10;;;;;;5075252;28;19967;-73
2021/10/19 09:11:39;;;;;;;;;;;15.90;96.10;;;;;;5075923;28;19935;-72
2021/10/19 09:14:04;;;;;;;;;;;15.90;96.30;;;;;;5074963;28;19924;-72
2021/10/19 09:16:33;;;;;;;;;;;16.00;96.20;;;;;;5092978;28;19919;-72
2021/10/19 09:19:00;;;;;;;;;;;16.00;96.30;;;;;;5092868;28;19935;-72
2021/10/19 09:21:28;;;;;;;;;;;16.00;96.20;;;;;;5094146;28;19997;-72
2021/10/19 09:23:54;;;;;;;;;;;16.00;96.20;;;;;;5093860;28;19931;-73
2021/10/19 09:26:29;;;;;;;;;;;16.00;96.20;;;;;;5093821;28;19912;-73
2021/10/19 09:28:54;;;;;;;;;;;16.00;96.20;;;;;;5093847;28;19944;-71
2021/10/19 09:31:20;;;;;;;;;;;16.10;96.30;;;;;;5093315;28;20426;-71
2021/10/19 09:33:55;;;;;;;;;;;16.10;96.30;;;;;;5093192;28;19920;-73
2021/10/19 09:36:30;;;;;;;;;;;16.10;96.30;;;;;;5093320;28;19921;-74
2021/10/19 09:38:56;;;;;;;;;;;16.20;96.30;;;;;;5093740;28;19915;-74
2021/10/19 09:41:21;;;;;;;;;;;16.20;96.40;;;;;;5093377;28;19981;-76
2021/10/19 09:43:46;;;;;;;;;;;16.20;96.40;;;;;;5093327;28;19916;-75
2021/10/19 09:46:12;;;;;;;;;;;16.20;96.30;;;;;;5093159;28;20350;-74
2021/10/19 09:48:40;;;;;;;;;;;16.20;96.30;;;;;;5092997;28;20433;-74
2021/10/19 09:51:05;;;;;;;;;;;16.30;96.40;;;;;;5093332;28;19918;-74
2021/10/19 09:53:31;;;;;;;;;;;16.30;96.30;;;;;;5092581;28;19995;-74
2021/10/19 09:55:58;;;;;;;;;;;16.30;96.30;;;;;;5093354;28;19955;-74
2021/10/19 09:58:23;;;;;;;;;;;16.40;96.30;;;;;;5074761;28;20364;-75
2021/10/19 10:00:49;;;;;;;;;;;16.40;96.30;;;;;;5093176;28;19965;-75
2021/10/19 10:03:15;;;;;;;;;;;16.40;96.30;;;;;;5074542;28;19912;-74
2021/10/19 10:05:41;;;;;;;;;;;16.40;96.30;;;;;;5092880;28;19981;-74
2021/10/19 10:08:16;;;;;;;;;;;16.40;96.30;;;;;;5093314;28;19973;-74
2021/10/19 10:10:41;;;;;;;;;;;16.50;96.40;;;;;;5074763;28;19916;-74
2021/10/19 10:13:14;;;;;;;;;;;16.50;96.40;;;;;;5093315;28;19956;-76
2021/10/19 10:15:40;;;;;;;;;;;16.50;96.40;;;;;;5092721;28;19924;-75
2021/10/19 10:18:06;;;;;;;;;;;16.50;96.50;;;;;;5073994;28;20399;-74
2021/10/19 10:20:37;;;;;;;;;;;16.50;96.50;;;;;;5092556;28;19915;-74
2021/10/19 10:23:17;;;;;;;;;;;16.50;96.50;;;;;;5092631;28;19912;-75
2021/10/19 10:25:42;;;;;;;;;;;16.50;96.50;;;;;;5074009;28;19931;-75
2021/10/19 10:28:09;;;;;;;;;;;16.60;96.40;;;;;;5092933;28;19912;-75
2021/10/19 10:30:36;;;;;;;;;;;16.50;96.40;;;;;;5091466;28;19919;-76
2021/10/19 10:33:06;;;;;;;;;;;16.60;96.50;;;;;;5092815;28;19916;-77
2021/10/19 10:35:31;;;;;;;;;;;16.60;96.50;;;;;;5091957;28;19916;-74
2021/10/19 10:37:57;;;;;;;;;;;16.70;96.50;;;;;;5092820;28;20292;-75
2021/10/19 10:40:25;;;;;;;;;;;16.70;96.50;;;;;;5074652;28;19912;-75
2021/10/19 10:42:51;;;;;;;;;;;16.70;96.50;;;;;;5092326;28;20297;-77
2021/10/19 10:45:16;;;;;;;;;;;16.70;96.50;;;;;;5091851;28;19920;-75
2021/10/19 10:47:46;;;;;;;;;;;16.80;96.50;;;;;;5092186;28;19912;-74
2021/10/19 10:50:11;;;;;;;;;;;16.80;96.40;;;;;;5092745;28;19915;-76
2021/10/19 10:52:37;;;;;;;;;;;16.80;96.50;;;;;;5091877;28;20288;-74
2021/10/19 10:55:10;;;;;;;;;;;16.80;96.50;;;;;;5074586;28;19912;-76
2021/10/19 10:57:45;;;;;;;;;;;16.90;96.50;;;;;;5074138;28;19912;-75
2021/10/19 11:00:12;;;;;;;;;;;16.90;96.50;;;;;;5085167;28;19912;-75
2021/10/19 11:02:37;;;;;;;;;;;16.90;96.40;;;;;;5092413;28;19912;-74
2021/10/19 11:05:03;;;;;;;;;;;16.90;96.40;;;;;;5092188;28;19920;-76
2021/10/19 11:07:34;;;;;;;;;;;17.00;96.50;;;;;;5074200;28;19912;-76
2021/10/19 11:10:07;;;;;;;;;;;17.00;96.40;;;;;;5073628;28;19920;-75
2021/10/19 11:12:34;;;;;;;;;;;17.00;96.40;;;;;;5092254;28;19990;-75
2021/10/19 11:15:06;;;;;;;;;;;17.00;96.50;;;;;;5091155;28;19920;-75
2021/10/19 11:17:41;;;;;;;;;;;17.10;96.50;;;;;;5092333;28;20295;-74
2021/10/19 11:20:08;;;;;;;;;;;17.10;96.40;;;;;;5092375;28;19912;-74
2021/10/19 11:22:33;;;;;;;;;;;17.10;96.70;;;;;;5092436;28;20383;-76
2021/10/19 11:24:59;;;;;;;;;;;17.10;96.40;;;;;;5073698;28;19924;-76
2021/10/19 11:27:24;;;;;;;;;;;17.20;96.50;;;;;;5092150;28;19955;-73
2021/10/19 11:29:49;;;;;;;;;;;17.20;96.50;;;;;;5073264;28;19912;-74
2021/10/19 11:32:16;;;;;;;;;;;17.20;96.40;;;;;;5094971;28;19912;-74
2021/10/19 11:34:41;;;;;;;;;;;17.30;96.40;;;;;;5095901;28;20296;-74
2021/10/19 11:37:07;;;;;;;;;;;17.30;96.40;;;;;;5095276;28;19920;-74
2021/10/19 11:39:32;;;;;;;;;;;17.30;96.40;;;;;;5095796;28;19912;-74
2021/10/19 11:42:00;;;;;;;;;;;17.40;96.40;;;;;;5095562;28;19912;-76
2021/10/19 11:44:29;;;;;;;;;;;17.40;96.40;;;;;;5095266;28;19920;-74
2021/10/19 11:46:56;;;;;;;;;;;17.40;96.40;;;;;;5095183;28;19912;-74
2021/10/19 11:49:22;;;;;;;;;;;17.40;96.40;;;;;;5094668;28;19923;-75
2021/10/19 11:51:51;;;;;;;;;;;17.40;96.50;;;;;;5095751;28;19912;-74
2021/10/19 11:54:18;;;;;;;;;;;17.40;96.40;;;;;;5095331;28;19912;-74
2021/10/19 11:56:57;;;;;;;;;;;17.40;96.50;;;;;;5095490;28;19953;-74
2021/10/19 11:59:22;;;;;;;;;;;17.50;96.50;;;;;;5087561;28;19912;-73
2021/10/19 12:01:49;;;;;;;;;;;17.50;96.50;;;;;;5095719;28;19919;-74
2021/10/19 12:04:14;;;;;;;;;;;17.50;96.40;;;;;;5094823;28;19928;-74
2021/10/19 12:06:46;;;;;;;;;;;17.50;96.40;;;;;;5095194;28;20254;-73
2021/10/19 12:09:19;;;;;;;;;;;17.50;96.40;;;;;;5095006;28;19916;-74
2021/10/19 12:11:49;;;;;;;;;;;17.60;96.50;;;;;;5095459;28;19919;-76
2021/10/19 12:14:14;;;;;;;;;;;17.60;96.40;;;;;;5094656;28;19912;-75
2021/10/19 12:16:40;;;;;;;;;;;17.60;96.40;;;;;;5095316;28;19912;-75
2021/10/19 12:19:05;;;;;;;;;;;17.60;96.40;;;;;;5094786;28;19919;-74
2021/10/19 12:21:31;;;;;;;;;;;17.60;96.50;;;;;;5095114;28;19923;-74
2021/10/19 12:23:59;;;;;;;;;;;17.60;96.50;;;;;;5094712;28;19920;-75
2021/10/19 12:26:28;;;;;;;;;;;17.50;96.50;;;;;;5086426;28;19920;-75
2021/10/19 12:28:56;;;;;;;;;;;17.50;96.50;;;;;;5095190;28;19916;-75
2021/10/19 12:31:23;;;;;;;;;;;17.60;96.60;;;;;;5094629;28;19916;-73
2021/10/19 12:33:52;;;;;;;;;;;17.50;96.50;;;;;;5094660;28;19916;-75
2021/10/19 12:36:17;;;;;;;;;;;17.50;96.50;;;;;;5094534;28;20387;-76
2021/10/19 12:38:44;;;;;;;;;;;17.50;96.50;;;;;;5094213;28;19912;-74
2021/10/19 12:41:11;;;;;;;;;;;17.50;96.50;;;;;;5093997;28;19951;-74
2021/10/19 12:43:37;;;;;;;;;;;17.50;96.50;;;;;;5086664;28;19913;-76
2021/10/19 12:46:03;;;;;;;;;;;17.50;96.60;;;;;;5094310;28;20363;-75
2021/10/19 12:48:32;;;;;;;;;;;17.50;96.60;;;;;;5094109;28;19916;-75
2021/10/19 12:51:01;;;;;;;;;;;17.50;96.60;;;;;;5094421;28;19948;-76
2021/10/19 12:53:27;;;;;;;;;;;17.50;96.60;;;;;;5093791;28;19916;-76
2021/10/19 12:55:53;;;;;;;;;;;17.50;96.60;;;;;;5094000;28;19919;-75
2021/10/19 12:58:18;;;;;;;;;;;17.50;96.60;;;;;;5093609;28;20024;-74
2021/10/19 13:00:44;;;;;;;;;;;17.50;96.60;;;;;;5095201;28;19915;-75
2021/10/19 13:03:09;;;;;;;;;;;17.60;96.60;;;;;;5094950;28;19954;-75
2021/10/19 13:05:35;;;;;;;;;;;17.60;96.60;;;;;;5094448;28;20277;-74
2021/10/19 13:08:02;;;;;;;;;;;17.60;96.60;;;;;;5093592;28;19931;-76
2021/10/19 13:10:27;;;;;;;;;;;17.60;96.50;;;;;;5093688;28;19920;-75
2021/10/19 13:12:52;;;;;;;;;;;17.60;96.60;;;;;;5093752;28;19920;-74
2021/10/19 13:15:18;;;;;;;;;;;17.60;96.50;;;;;;5093893;28;19955;-75
2021/10/19 13:17:44;;;;;;;;;;;17.60;96.50;;;;;;5093729;28;19912;-75
2021/10/19 13:20:11;;;;;;;;;;;17.60;96.60;;;;;;5093939;28;19916;-75
2021/10/19 13:22:37;;;;;;;;;;;17.60;96.50;;;;;;5093855;28;19912;-75
2021/10/19 13:25:02;;;;;;;;;;;17.60;96.50;;;;;;5092908;28;20342;-76
2021/10/19 13:27:28;;;;;;;;;;;17.60;96.50;;;;;;5093642;28;20011;-75
2021/10/19 13:29:53;;;;;;;;;;;17.70;96.50;;;;;;5092017;28;19913;-75
2021/10/19 13:32:19;;;;;;;;;;;17.70;96.50;;;;;;5093959;28;20360;-73
2021/10/19 13:34:44;;;;;;;;;;;17.70;96.50;;;;;;5093664;28;19912;-74
2021/10/19 13:37:10;;;;;;;;;;;17.70;96.50;;;;;;5093253;28;19964;-74
2021/10/19 13:39:35;;;;;;;;;;;17.70;96.80;;;;;;5093278;28;19920;-76
2021/10/19 13:42:01;;;;;;;;;;;17.70;96.50;;;;;;5074909;28;19997;-74
2021/10/19 13:44:26;;;;;;;;;;;17.70;96.40;;;;;;5074794;28;19920;-75
2021/10/19 13:46:52;;;;;;;;;;;17.70;96.50;;;;;;5092312;28;20360;-75
2021/10/19 13:49:17;;;;;;;;;;;17.70;96.50;;;;;;5093564;28;19919;-74
2021/10/19 13:51:43;;;;;;;;;;;17.70;96.50;;;;;;5085289;28;19912;-75
2021/10/19 13:54:08;;;;;;;;;;;17.80;96.50;;;;;;5091503;28;19912;-75
2021/10/19 13:56:36;;;;;;;;;;;17.80;96.50;;;;;;5093528;28;19959;-75
2021/10/19 13:59:03;;;;;;;;;;;17.80;96.50;;;;;;5092529;28;20377;-74
2021/10/19 14:01:29;;;;;;;;;;;17.80;96.50;;;;;;5075111;28;19981;-77
2021/10/19 14:03:54;;;;;;;;;;;17.80;96.50;;;;;;5093102;28;20368;-75
2021/10/19 14:06:20;;;;;;;;;;;17.80;96.50;;;;;;5092919;28;20387;-74
2021/10/19 14:08:46;;;;;;;;;;;17.80;96.40;;;;;;5093078;28;19965;-75
2021/10/19 14:11:11;;;;;;;;;;;17.80;96.50;;;;;;5092631;28;19930;-75